Time;durP1;ratioP1;P1;durP2;ratioP2;P2;SDS_P1;SDS_P2;PMS_P1;PMS_P2;Temp;Humidity;BMP_temperature;BMP_pressure;BME280_temperature;BME280_humidity;BME280_pressure;Samples;Min_cycle;Max_cycle;Signal;HPM_P1;HPM_P2
2022/01/18 00:00:41;;;;;;;29.47;7.33;;;;;;;4.09;99.04;103684.03;5234281;28;20124;-79
2022/01/18 00:03:14;;;;;;;28.00;9.57;;;;;;;4.28;99.80;103689.47;5218233;28;20487;-79
2022/01/18 00:05:48;;;;;;;37.07;8.73;;;;;;;4.31;100.00;103697.31;5236204;28;20430;-79
2022/01/18 00:08:20;;;;;;;30.77;9.57;;;;;;;4.34;100.00;103690.44;5235177;28;20028;-79
2022/01/18 00:10:51;;;;;;;27.80;8.57;;;;;;;4.51;100.00;103707.03;5236216;28;20017;-79
2022/01/18 00:13:36;;;;;;;25.53;7.73;;;;;;;4.50;100.00;103705.31;5234360;28;20021;-78
2022/01/18 00:16:23;;;;;;;30.00;8.70;;;;;;;4.39;100.00;103707.78;5235998;28;20083;-77
2022/01/18 00:18:58;;;;;;;34.47;9.50;;;;;;;4.38;100.00;103700.84;5235824;28;20431;-76
2022/01/18 00:21:37;;;;;;;31.50;10.03;;;;;;;4.31;100.00;103702.50;5220799;28;20083;-77
2022/01/18 00:24:08;;;;;;;31.23;9.03;;;;;;;4.49;100.00;103699.25;5236240;28;20021;-77
2022/01/18 00:26:39;;;;;;;30.10;8.17;;;;;;;4.44;100.00;103695.72;5234452;28;20052;-77
2022/01/18 00:29:14;;;;;;;33.10;9.50;;;;;;;4.68;100.00;103704.66;5234578;28;20017;-76
2022/01/18 00:39:20;;;;;;;29.13;9.23;;;;;;;4.70;100.00;103718.53;5235160;28;20064;-77
2022/01/18 00:41:52;;;;;;;36.73;9.17;;;;;;;4.66;100.00;103716.75;5217662;28;20124;-77
2022/01/18 00:44:23;;;;;;;40.60;10.40;;;;;;;4.47;100.00;103716.50;5215682;28;20021;-77
2022/01/18 00:46:55;;;;;;;39.63;9.97;;;;;;;4.52;100.00;103714.84;5235361;28;20135;-79
2022/01/18 00:49:26;;;;;;;34.93;8.87;;;;;;;4.77;100.00;103722.06;5237208;28;20053;-79
2022/01/18 00:52:03;;;;;;;47.80;13.07;;;;;;;4.52;100.00;103704.47;5237482;28;20521;-79
2022/01/18 00:54:39;;;;;;;35.23;9.83;;;;;;;4.86;100.00;103736.88;5233947;28;20077;-78
2022/01/18 00:57:10;;;;;;;42.20;9.23;;;;;;;4.79;100.00;103742.00;5216866;28;20120;-77
2022/01/18 00:59:44;;;;;;;31.37;10.03;;;;;;;4.78;100.00;103731.59;5216293;28;20100;-78
2022/01/18 01:02:16;;;;;;;35.20;12.33;;;;;;;4.74;100.00;103740.19;5234561;28;20277;-78
2022/01/18 01:04:48;;;;;;;29.17;9.33;;;;;;;4.65;100.00;103725.38;5234908;28;20021;-79
2022/01/18 01:07:22;;;;;;;30.10;9.57;;;;;;;4.92;100.00;103726.56;5234344;28;20820;-79
2022/01/18 01:09:53;;;;;;;29.53;9.27;;;;;;;4.96;100.00;103729.19;5235165;28;20032;-79
2022/01/18 01:12:26;;;;;;;42.13;10.80;;;;;;;4.93;100.00;103729.19;5216364;28;20033;-79
2022/01/18 01:15:05;;;;;;;40.83;9.67;;;;;;;4.94;100.00;103743.03;5234069;28;20389;-79
2022/01/18 01:17:49;;;;;;;37.30;10.97;;;;;;;4.92;100.00;103731.75;5234599;28;20026;-78
2022/01/18 01:34:42;;;;;;;37.17;10.80;;;;;;;5.07;100.00;103728.44;5234073;28;20843;-79
2022/01/18 01:42:53;;;;;;;41.65;10.60;;;;;;;4.97;100.00;103707.56;5233512;28;20671;-79
2022/01/18 01:45:14;;;;;;;35.60;9.73;;;;;;;5.14;100.00;103734.56;5231478;28;20442;-76
2022/01/18 01:47:50;;;;;;;34.47;9.60;;;;;;;4.98;100.00;103729.22;5215891;28;20491;-78
2022/01/18 01:50:24;;;;;;;36.67;11.83;;;;;;;5.15;100.00;103728.53;5233787;28;20468;-79
2022/01/18 01:52:56;;;;;;;41.72;10.65;;;;;;;5.10;100.00;103712.03;5233573;28;20129;-78
2022/01/18 01:55:28;;;;;;;32.63;10.20;;;;;;;5.04;100.00;103713.72;5214947;28;20060;-79
2022/01/18 01:57:59;;;;;;;40.73;9.20;;;;;;;5.10;100.00;103727.63;5233294;28;20481;-78
2022/01/18 02:00:30;;;;;;;41.33;11.60;;;;;;;5.08;100.00;103720.66;5215030;28;20431;-78
2022/01/18 02:03:02;;;;;;;34.73;11.00;;;;;;;5.16;100.00;103728.56;5233756;28;20036;-79
2022/01/18 02:05:33;;;;;;;43.70;11.47;;;;;;;5.02;100.00;103725.81;5230977;22;20062;-78
2022/01/18 02:08:07;;;;;;;40.27;10.67;;;;;;;5.14;100.00;103734.56;5232282;28;20540;-78
2022/01/18 02:10:39;;;;;;;35.28;9.45;;;;;;;5.11;100.00;103734.53;5233226;28;20021;-79
2022/01/18 02:13:12;;;;;;;46.13;10.30;;;;;;;5.05;100.00;103732.75;5232674;28;20022;-77
2022/01/18 02:24:19;;;;;;;38.60;9.90;;;;;;;5.19;100.00;103735.50;5233392;28;20037;-78
2022/01/18 02:26:50;;;;;;;33.65;9.55;;;;;;;5.05;100.00;103728.44;5233356;28;20033;-78
2022/01/18 02:29:22;;;;;;;40.27;11.63;;;;;;;4.92;100.00;103729.16;5232130;28;20096;-79
2022/01/18 02:31:54;;;;;;;35.33;11.47;;;;;;;5.11;100.00;103714.63;5231981;28;20013;-78
2022/01/18 02:34:26;;;;;;;40.20;10.53;;;;;;;5.18;100.00;103731.16;5232812;28;20030;-79
2022/01/18 02:36:57;;;;;;;37.50;11.30;;;;;;;5.16;100.00;103715.56;5211055;28;20029;-78
2022/01/18 02:39:30;;;;;;;36.63;10.97;;;;;;;5.15;100.00;103721.59;5211771;28;20488;-79
2022/01/18 02:42:07;;;;;;;39.97;12.17;;;;;;;5.14;100.00;103706.88;5211745;28;20412;-79
2022/01/18 02:44:38;;;;;;;42.30;11.83;;;;;;;5.20;100.00;103713.88;5211138;28;20369;-79
2022/01/18 02:47:10;;;;;;;37.30;11.33;;;;;;;4.95;100.00;103706.69;5211965;28;20038;-79
2022/01/18 02:49:41;;;;;;;38.90;11.43;;;;;;;5.11;100.00;103705.97;5213024;28;20113;-79
2022/01/18 02:52:14;;;;;;;31.77;11.70;;;;;;;5.24;100.00;103714.72;5227218;28;20036;-78
2022/01/18 02:54:45;;;;;;;33.93;10.37;;;;;;;5.10;100.00;103714.63;5212141;28;20052;-78
2022/01/18 02:57:25;;;;;;;39.20;11.17;;;;;;;4.97;100.00;103714.50;5210409;28;20029;-78
2022/01/18 03:00:14;;;;;;;38.77;11.27;;;;;;;5.03;100.00;103714.56;5211877;28;20059;-80
2022/01/18 03:05:35;;;;;;;41.43;12.90;;;;;;;5.10;100.00;103704.25;5211515;28;20050;-78
2022/01/18 03:08:08;;;;;;;39.93;10.97;;;;;;;5.17;100.00;103719.88;5216076;28;20361;-78
2022/01/18 03:10:40;;;;;;;36.63;11.27;;;;;;;5.23;100.00;103719.09;5218261;28;20089;-79
2022/01/18 03:13:11;;;;;;;36.70;14.13;;;;;;;5.05;100.00;103704.16;5218325;28;20499;-78
2022/01/18 03:15:43;;;;;;;40.93;11.67;;;;;;;5.10;100.00;103709.44;5218856;28;20104;-78
2022/01/18 03:18:14;;;;;;;36.67;12.43;;;;;;;5.17;100.00;103719.00;5217716;28;20567;-79
2022/01/18 03:20:46;;;;;;;35.30;12.07;;;;;;;5.24;100.00;103726.00;5219152;28;20021;-78
2022/01/18 03:23:20;;;;;;;33.13;11.37;;;;;;;5.17;100.00;103724.19;5218518;28;20030;-78
2022/01/18 03:25:55;;;;;;;33.10;12.65;;;;;;;5.17;100.00;103727.69;5218966;28;20021;-78
2022/01/18 03:28:27;;;;;;;36.47;11.93;;;;;;;5.23;100.00;103732.06;5217728;28;20570;-79
2022/01/18 03:30:59;;;;;;;31.20;12.40;;;;;;;5.18;100.00;103720.75;5218832;28;20018;-78
2022/01/18 03:33:30;;;;;;;35.57;11.50;;;;;;;5.26;100.00;103726.91;5218552;28;20026;-79
2022/01/18 03:36:03;;;;;;;37.60;12.20;;;;;;;5.23;100.00;103734.69;5219003;28;20496;-77
2022/01/18 03:38:34;;;;;;;36.27;11.87;;;;;;;5.05;100.00;103718.03;5218526;28;20026;-78
2022/01/18 03:41:06;;;;;;;27.10;10.50;;;;;;;5.19;100.00;103732.88;5218922;28;20026;-78
2022/01/18 03:43:39;;;;;;;36.30;13.17;;;;;;;4.97;100.00;103727.50;5216017;28;20170;-78
2022/01/18 03:46:10;;;;;;;37.13;13.27;;;;;;;5.07;100.00;103723.25;5217816;28;20164;-75
2022/01/18 03:48:49;;;;;;;34.73;10.97;;;;;;;5.01;100.00;103718.84;5219184;28;20101;-78
2022/01/18 03:51:21;;;;;;;29.73;12.03;;;;;;;5.04;100.00;103728.41;5218338;28;20014;-78
2022/01/18 03:53:52;;;;;;;26.40;11.33;;;;;;;5.14;100.00;103738.03;5217359;28;20079;-78
2022/01/18 03:56:24;;;;;;;28.70;10.53;;;;;;;5.25;100.00;103738.16;5217884;28;20014;-78
2022/01/18 03:58:55;;;;;;;30.47;12.17;;;;;;;5.13;100.00;103730.25;5218041;28;20025;-78
2022/01/18 04:01:26;;;;;;;31.57;11.80;;;;;;;5.10;100.00;103735.41;5218667;28;20124;-78
2022/01/18 04:03:58;;;;;;;25.13;11.50;;;;;;;5.19;100.00;103743.28;5218758;28;20050;-78
2022/01/18 04:06:29;;;;;;;36.73;12.03;;;;;;;5.18;100.00;103751.94;5218357;28;20034;-79
2022/01/18 04:09:00;;;;;;;29.53;11.77;;;;;;;5.16;100.00;103743.25;5218280;28;20037;-78
2022/01/18 04:11:32;;;;;;;34.13;11.63;;;;;;;5.19;100.00;103743.28;5218433;28;20057;-78
2022/01/18 04:14:03;;;;;;;27.17;12.50;;;;;;;5.25;100.00;103747.69;5217376;28;20034;-78
2022/01/18 04:16:43;;;;;;;30.83;11.97;;;;;;;5.14;100.00;103744.97;5217045;28;20383;-78
2022/01/18 04:27:52;;;;;;;29.40;11.93;;;;;;;5.21;100.00;103757.16;5214209;28;20496;-77
2022/01/18 04:30:24;;;;;;;28.70;12.40;;;;;;;5.21;100.00;103751.97;5214731;28;20030;-79
2022/01/18 04:32:55;;;;;;;28.60;12.80;;;;;;;5.19;100.00;103748.47;5215272;28;20061;-79
2022/01/18 04:35:26;;;;;;;31.80;13.20;;;;;;;4.91;100.00;103737.78;5214773;28;20092;-78
2022/01/18 04:37:58;;;;;;;24.27;12.97;;;;;;;5.12;100.00;103746.66;5214669;28;20018;-79
2022/01/18 04:40:31;;;;;;;32.63;13.47;;;;;;;5.10;100.00;103745.81;5213593;28;20072;-78
2022/01/18 04:43:19;;;;;;;32.40;13.37;;;;;;;5.17;100.00;103755.38;5213457;28;20122;-78
2022/01/18 04:48:40;;;;;;;39.00;13.40;;;;;;;5.06;100.00;103748.34;5214625;28;20431;-78
2022/01/18 04:51:11;;;;;;;32.53;12.87;;;;;;;5.12;100.00;103750.16;5214200;28;20026;-78
2022/01/18 04:53:51;;;;;;;31.47;13.47;;;;;;;4.89;100.00;103755.97;5213536;28;20050;-78
2022/01/18 04:59:19;;;;;;;28.23;12.97;;;;;;;5.05;100.00;103749.22;5203236;28;20040;-79
2022/01/18 05:01:51;;;;;;;30.87;13.13;;;;;;;5.12;100.00;103767.44;5213826;28;20018;-78
2022/01/18 05:04:22;;;;;;;29.00;13.30;;;;;;;5.15;100.00;103763.16;5213986;28;20496;-78
2022/01/18 05:06:58;;;;;;;34.57;12.80;;;;;;;5.15;100.00;103757.97;5214132;28;20092;-79
2022/01/18 05:09:29;;;;;;;27.97;13.90;;;;;;;5.08;100.00;103751.84;5212905;28;20037;-78
2022/01/18 05:12:08;;;;;;;34.97;13.70;;;;;;;5.17;100.00;103773.56;5228978;28;20119;-79
2022/01/18 05:14:40;;;;;;;32.37;14.03;;;;;;;5.11;100.00;103766.59;5213244;28;20126;-75
2022/01/18 05:17:35;;;;;;;29.97;14.70;;;;;;;5.03;100.00;103776.91;5213425;28;20021;-76
2022/01/18 05:20:55;;;;;;;36.23;14.63;;;;;;;5.06;100.00;103774.31;5213844;28;20057;-76
2022/01/18 05:23:04;;;;;;;36.50;15.13;;;;;;;5.16;100.00;103777.91;5211987;28;20048;-76
2022/01/18 05:25:36;;;;;;;42.33;16.83;;;;;;;5.11;100.00;103778.72;5213388;28;20079;-76
2022/01/18 05:28:07;;;;;;;32.43;14.50;;;;;;;5.13;100.00;103758.81;5211723;28;20030;-76
2022/01/18 05:30:40;;;;;;;40.67;15.90;;;;;;;5.15;100.00;103773.56;5212464;28;20030;-78
2022/01/18 05:33:11;;;;;;;37.70;15.10;;;;;;;5.08;100.00;103757.03;5213762;28;20076;-78
2022/01/18 05:35:43;;;;;;;42.43;14.57;;;;;;;5.19;100.00;103769.25;5213928;28;20026;-78
2022/01/18 05:38:14;;;;;;;38.50;15.53;;;;;;;4.97;100.00;103771.66;5213102;28;20472;-78
2022/01/18 05:40:45;;;;;;;36.10;15.30;;;;;;;5.07;100.00;103770.91;5216690;28;20037;-76
2022/01/18 05:43:17;;;;;;;45.03;16.13;;;;;;;4.94;100.00;103777.66;5213140;28;20029;-76
2022/01/18 05:45:49;;;;;;;34.07;14.87;;;;;;;5.07;100.00;103764.81;5213796;28;20030;-76
2022/01/18 05:48:20;;;;;;;37.37;14.83;;;;;;;5.08;100.00;103766.53;5211885;28;20022;-76
2022/01/18 05:50:54;;;;;;;49.07;17.10;;;;;;;5.17;100.00;103768.38;5213665;28;20022;-76
2022/01/18 05:53:39;;;;;;;39.50;15.50;;;;;;;4.95;100.00;103755.16;5212945;28;20022;-76
2022/01/18 05:56:11;;;;;;;38.75;14.07;;;;;;;5.06;100.00;103763.94;5211453;28;20041;-73
2022/01/18 05:58:44;;;;;;;38.83;15.30;;;;;;;5.05;100.00;103762.19;5212326;28;20024;-76
2022/01/18 06:01:25;;;;;;;40.17;16.60;;;;;;;5.06;100.00;103769.13;5211817;28;20121;-76
2022/01/18 06:09:22;;;;;;;44.00;15.80;;;;;;;5.08;100.00;103762.22;5212361;28;20034;-76
2022/01/18 06:11:53;;;;;;;31.50;14.40;;;;;;;5.15;100.00;103762.31;5211853;28;20117;-76
2022/01/18 06:14:25;;;;;;;40.13;14.53;;;;;;;5.10;100.00;103753.59;5211823;28;20192;-76
2022/01/18 06:16:56;;;;;;;37.83;14.87;;;;;;;5.02;100.00;103766.50;5213400;28;20029;-79
2022/01/18 06:19:27;;;;;;;33.60;13.63;;;;;;;5.01;100.00;103759.56;5211556;28;20069;-75
2022/01/18 06:21:58;;;;;;;46.30;15.60;;;;;;;5.10;100.00;103758.78;5211837;28;20041;-75
2022/01/18 06:24:30;;;;;;;37.70;13.67;;;;;;;5.09;100.00;103770.91;5212646;28;20411;-74
2022/01/18 06:27:01;;;;;;;42.13;13.97;;;;;;;5.01;100.00;103773.41;5211574;28;20030;-75
2022/01/18 06:29:32;;;;;;;37.70;14.20;;;;;;;5.03;100.00;103763.91;5211839;28;20117;-75
2022/01/18 06:32:05;;;;;;;45.30;14.30;;;;;;;5.07;100.00;103775.22;5211169;28;20025;-75
2022/01/18 06:34:36;;;;;;;46.50;14.47;;;;;;;5.00;100.00;103763.00;5211059;28;20369;-75
2022/01/18 06:37:08;;;;;;;37.87;15.10;;;;;;;5.01;100.00;103769.97;5212099;28;20084;-76
2022/01/18 06:39:39;;;;;;;44.20;14.77;;;;;;;5.04;100.00;103763.06;5210673;28;20014;-74
2022/01/18 06:42:12;;;;;;;55.47;18.60;;;;;;;5.00;100.00;103766.47;5211299;28;20053;-75
2022/01/18 06:44:43;;;;;;;40.87;16.60;;;;;;;5.04;100.00;103765.66;5211294;28;20018;-76
2022/01/18 06:47:14;;;;;;;33.47;14.83;;;;;;;5.02;100.00;103758.69;5209304;28;20029;-77
2022/01/18 06:49:46;;;;;;;36.77;15.47;;;;;;;5.08;100.00;103767.44;5212126;28;20518;-77
2022/01/18 06:52:17;;;;;;;45.03;16.33;;;;;;;5.01;100.00;103772.56;5212591;28;20032;-76
2022/01/18 06:54:48;;;;;;;34.67;16.10;;;;;;;5.04;100.00;103763.06;5212009;28;20026;-76
2022/01/18 06:57:20;;;;;;;35.67;14.97;;;;;;;5.08;100.00;103771.75;5211606;28;20461;-77
2022/01/18 06:59:51;;;;;;;39.87;18.37;;;;;;;5.11;100.00;103781.31;5215784;28;20030;-77
2022/01/18 07:02:23;;;;;;;39.33;17.10;;;;;;;4.92;100.00;103778.50;5215628;28;20030;-77
2022/01/18 07:04:54;;;;;;;41.17;19.33;;;;;;;4.98;100.00;103765.59;5202893;28;20046;-77
2022/01/18 07:07:25;;;;;;;35.17;15.00;;;;;;;5.15;100.00;103783.94;5210239;28;20578;-76
2022/01/18 07:09:57;;;;;;;34.17;16.67;;;;;;;5.13;100.00;103788.25;5212546;28;20022;-81
2022/01/18 07:12:32;;;;;;;42.37;17.63;;;;;;;5.00;100.00;103765.59;5204046;28;20038;-81
2022/01/18 07:15:08;;;;;;;50.30;17.13;;;;;;;5.05;100.00;103783.00;5209464;28;20116;-81
2022/01/18 07:17:40;;;;;;;38.17;16.07;;;;;;;5.00;100.00;103784.66;5210820;28;20388;-78
2022/01/18 07:20:12;;;;;;;43.80;17.27;;;;;;;5.01;100.00;103783.78;5211637;28;20010;-81
2022/01/18 07:22:43;;;;;;;44.17;17.73;;;;;;;5.03;100.00;103779.50;5211556;28;20108;-81
2022/01/18 07:25:17;;;;;;;37.47;17.07;;;;;;;5.07;100.00;103786.47;5210218;28;20021;-81
2022/01/18 07:27:48;;;;;;;40.95;16.77;;;;;;;4.99;100.00;103777.75;5210491;28;20022;-81
2022/01/18 07:30:19;;;;;;;38.20;17.10;;;;;;;5.08;100.00;103802.91;5211278;28;20014;-82
2022/01/18 07:32:51;;;;;;;37.40;17.67;;;;;;;5.01;100.00;103801.97;5211403;28;20018;-81
2022/01/18 07:35:23;;;;;;;37.53;17.80;;;;;;;4.89;100.00;103796.63;5213325;28;20026;-84
2022/01/18 07:37:56;;;;;;;37.80;17.07;;;;;;;4.95;100.00;103788.94;5202538;28;20091;-84
2022/01/18 07:40:29;;;;;;;31.67;15.30;;;;;;;5.06;100.00;103796.84;5196041;28;20030;-84
2022/01/18 07:43:02;;;;;;;42.10;15.73;;;;;;;5.06;100.00;103800.31;5201646;28;20388;-84
2022/01/18 07:45:33;;;;;;;37.40;15.27;;;;;;;5.11;100.00;103804.69;5207728;28;20460;-83
2022/01/18 07:48:05;;;;;;;28.80;15.20;;;;;;;5.04;100.00;103802.03;5202218;28;20038;-83
2022/01/18 07:50:36;;;;;;;37.33;16.40;;;;;;;5.10;100.00;103797.75;5189712;28;20037;-83
2022/01/18 07:53:08;;;;;;;36.10;16.30;;;;;;;5.03;100.00;103807.19;5196881;28;20042;-83
2022/01/18 07:55:39;;;;;;;37.80;16.93;;;;;;;5.10;100.00;103805.56;5193641;28;20168;-73
2022/01/18 07:58:10;;;;;;;31.53;15.87;;;;;;;5.03;100.00;103807.19;5208008;28;20463;-77
2022/01/18 08:00:42;;;;;;;41.17;17.33;;;;;;;5.12;100.00;103815.09;5207437;28;20509;-82
2022/01/18 08:03:13;;;;;;;32.80;15.60;;;;;;;5.10;100.00;103810.75;5208680;28;20026;-83
2022/01/18 08:05:45;;;;;;;36.70;16.93;;;;;;;5.07;100.00;103807.25;5211705;28;20050;-83
2022/01/18 08:08:16;;;;;;;35.53;16.23;;;;;;;5.14;100.00;103812.50;5209098;28;20041;-82
2022/01/18 08:10:48;;;;;;;32.27;16.33;;;;;;;5.14;100.00;103815.13;5200911;28;20045;-82
2022/01/18 08:13:24;;;;;;;31.70;15.83;;;;;;;5.19;100.00;103816.03;5205361;28;20056;-83
2022/01/18 08:16:11;;;;;;;37.40;17.27;;;;;;;5.21;100.00;103822.13;5198639;28;20025;-79
2022/01/18 08:18:42;;;;;;;39.60;16.27;;;;;;;5.00;100.00;103804.56;5196914;28;20037;-79
2022/01/18 08:21:13;;;;;;;32.10;14.90;;;;;;;5.14;100.00;103807.31;5203669;28;20026;-79
2022/01/18 08:23:45;;;;;;;31.67;15.30;;;;;;;5.21;100.00;103809.13;5207076;28;20060;-79
2022/01/18 08:26:17;;;;;;;34.27;14.87;;;;;;;5.16;100.00;103806.50;5208115;28;20069;-79
2022/01/18 08:28:48;;;;;;;36.03;14.80;;;;;;;5.17;100.00;103804.75;5202467;28;20435;-82
2022/01/18 08:31:20;;;;;;;38.40;15.60;;;;;;;5.08;100.00;103805.50;5206081;28;20464;-80
2022/01/18 08:33:51;;;;;;;40.17;14.87;;;;;;;5.04;100.00;103796.84;5206767;28;20114;-72
2022/01/18 08:36:22;;;;;;;39.40;15.10;;;;;;;5.26;100.00;103798.78;5197652;28;20491;-77
2022/01/18 08:38:53;;;;;;;35.80;15.60;;;;;;;5.30;100.00;103801.44;5214797;28;20030;-76
2022/01/18 08:41:25;;;;;;;33.63;14.97;;;;;;;5.33;100.00;103798.88;5206643;28;20032;-77
2022/01/18 08:43:56;;;;;;;37.40;16.83;;;;;;;5.29;100.00;103802.28;5196037;28;20033;-76
2022/01/18 08:46:29;;;;;;;43.87;16.30;;;;;;;5.18;100.00;103809.09;5209460;28;20034;-81
2022/01/18 08:49:00;;;;;;;50.53;20.20;;;;;;;5.22;100.00;103813.47;5205530;28;20030;-80
2022/01/18 08:51:32;;;;;;;54.17;19.40;;;;;;;5.27;100.00;103819.59;5209929;28;20476;-86
2022/01/18 08:54:04;;;;;;;40.27;17.33;;;;;;;5.27;100.00;103809.19;5207021;28;20022;-82
2022/01/18 08:56:35;;;;;;;45.97;18.27;;;;;;;5.23;100.00;103804.84;5206777;28;20504;-82
2022/01/18 08:59:06;;;;;;;50.70;19.73;;;;;;;5.29;100.00;103801.41;5195577;28;20026;-82
2022/01/18 09:01:38;;;;;;;43.07;19.23;;;;;;;5.33;100.00;103811.88;5202279;28;20048;-82
2022/01/18 09:04:09;;;;;;;49.43;19.60;;;;;;;5.36;100.00;103808.41;5210567;28;20058;-82
2022/01/18 09:06:41;;;;;;;45.33;19.37;;;;;;;5.31;100.00;103810.97;5196792;28;20037;-81
2022/01/18 09:09:15;;;;;;;46.40;17.53;;;;;;;5.45;100.00;103810.25;5196354;28;20038;-82
2022/01/18 09:11:47;;;;;;;42.70;18.58;;;;;;;5.45;100.00;103811.13;5211299;28;20022;-82
2022/01/18 09:14:18;;;;;;;51.97;19.17;;;;;;;5.34;100.00;103815.34;5201230;28;20034;-81
2022/01/18 09:16:49;;;;;;;37.33;18.63;;;;;;;5.43;100.00;103823.22;5207580;28;20044;-82
2022/01/18 09:19:21;;;;;;;40.57;16.40;;;;;;;5.45;100.00;103828.44;5200448;28;20035;-82
2022/01/18 09:21:52;;;;;;;34.83;17.37;;;;;;;5.40;100.00;103812.81;5194984;28;20033;-81
2022/01/18 09:24:23;;;;;;;37.40;18.07;;;;;;;5.51;100.00;103823.31;5199632;28;20384;-82
2022/01/18 09:26:55;;;;;;;33.90;16.43;;;;;;;5.43;100.00;103810.22;5206577;28;20485;-82
2022/01/18 09:29:28;;;;;;;43.97;16.67;;;;;;;5.56;100.00;103832.03;5204062;28;20030;-82
2022/01/18 09:31:59;;;;;;;40.70;17.33;;;;;;;5.57;100.00;103828.56;5206470;28;20072;-82
2022/01/18 09:34:31;;;;;;;39.87;16.27;;;;;;;5.62;100.00;103836.41;5205527;28;20056;-84
2022/01/18 09:37:03;;;;;;;51.50;20.63;;;;;;;5.53;100.00;103825.94;5207715;28;20041;-85
2022/01/18 09:39:34;;;;;;;37.57;17.47;;;;;;;5.57;100.00;103833.75;5205981;28;20029;-83
2022/01/18 09:42:05;;;;;;;40.17;17.00;;;;;;;5.69;100.00;103826.91;5198292;28;20117;-85
2022/01/18 09:44:37;;;;;;;46.00;20.50;;;;;;;5.53;100.00;103839.78;5199327;28;20023;-81
2022/01/18 09:47:08;;;;;;;41.57;18.07;;;;;;;5.56;100.00;103844.16;5183198;28;20056;-79
2022/01/18 09:49:40;;;;;;;34.10;17.47;;;;;;;5.74;100.00;103843.44;5184348;28;20139;-78
2022/01/18 09:52:11;;;;;;;41.77;19.37;;;;;;;5.85;100.00;103842.69;5181235;28;20061;-81
2022/01/18 09:54:43;;;;;;;39.23;18.23;;;;;;;5.84;100.00;103846.13;5187399;28;20369;-81
2022/01/18 09:57:14;;;;;;;44.27;18.73;;;;;;;5.86;100.00;103837.50;5184529;28;21658;-78
2022/01/18 09:59:45;;;;;;;41.43;19.67;;;;;;;5.90;100.00;103843.59;5183681;28;20045;-81
2022/01/18 10:02:16;;;;;;;37.77;19.37;;;;;;;6.03;100.00;103847.16;5184862;28;20022;-81
2022/01/18 10:04:49;;;;;;;32.70;20.10;;;;;;;6.04;100.00;103848.91;5184341;28;20481;-82
2022/01/18 10:07:34;;;;;;;34.57;19.77;;;;;;;6.05;100.00;103846.38;5186214;28;20052;-80
2022/01/18 10:10:06;;;;;;;;;;;;;;;6.25;100.00;103847.38;5187033;28;20038;-81
2022/01/18 10:12:37;;;;;;;35.37;20.10;;;;;;;6.05;100.00;103835.97;5190895;28;20576;-79
2022/01/18 10:15:08;;;;;;;34.07;18.53;;;;;;;6.13;100.00;103848.13;5193186;28;20208;-80
2022/01/18 10:17:40;;;;;;;36.33;20.20;;;;;;;6.25;100.00;103857.78;5182362;28;20524;-81
2022/01/18 10:20:18;;;;;;;37.30;21.93;;;;;;;6.36;100.00;103856.13;5198427;28;20091;-81
2022/01/18 10:22:49;;;;;;;37.90;21.30;;;;;;;6.45;100.00;103846.63;5192626;28;21022;-82
2022/01/18 10:25:33;;;;;;;38.23;20.93;;;;;;;6.56;100.00;103846.69;5193090;28;20068;-78
2022/01/18 10:28:04;;;;;;;41.53;22.87;;;;;;;6.65;100.00;103841.50;5183247;28;20034;-79
2022/01/18 10:30:43;;;;;;;38.33;21.07;;;;;;;6.75;100.00;103840.72;5186725;28;20034;-78
2022/01/18 10:33:18;;;;;;;40.60;21.60;;;;;;;6.84;100.00;103845.06;5185408;28;20038;-83
2022/01/18 10:36:04;;;;;;;43.93;22.13;;;;;;;7.12;100.00;103828.72;5191073;28;20084;-75
2022/01/18 10:38:44;;;;;;;39.60;20.80;;;;;;;7.19;100.00;103830.44;5201263;28;20038;-80
2022/01/18 10:41:23;;;;;;;37.47;20.50;;;;;;;7.31;100.00;103832.22;5192270;28;20066;-74
2022/01/18 10:44:12;;;;;;;37.97;20.33;;;;;;;7.34;100.00;103815.72;5178891;28;20026;-73
2022/01/18 10:46:45;;;;;;;34.00;20.03;;;;;;;7.18;100.00;103823.50;5198842;28;20034;-79
2022/01/18 10:49:27;;;;;;;39.80;19.30;;;;;;;7.32;100.00;103818.31;5179907;28;20045;-76
2022/01/18 10:52:06;;;;;;;38.97;19.60;;;;;;;7.30;100.00;103806.13;5188143;28;20060;-78
2022/01/18 10:54:45;;;;;;;30.43;16.97;;;;;;;7.29;100.00;103788.75;5181160;28;20089;-81
2022/01/18 10:57:22;;;;;;;31.80;16.97;;;;;;;7.31;100.00;103805.28;5175952;28;20033;-77
2022/01/18 10:59:58;;;;;;;29.30;15.53;;;;;;;7.37;100.00;103802.66;5187440;28;20112;-75
2022/01/18 11:02:35;;;;;;;33.87;16.77;;;;;;;7.34;100.00;103807.88;5189011;28;20045;-77
2022/01/18 11:05:20;;;;;;;30.13;16.63;;;;;;;7.47;100.00;103799.22;5184347;28;20046;-77
2022/01/18 11:07:53;;;;;;;33.37;17.27;;;;;;;7.47;100.00;103801.81;5185013;28;20141;-76
2022/01/18 11:10:42;;;;;;;38.93;19.43;;;;;;;7.40;100.00;103792.25;5183827;28;20670;-78
2022/01/18 11:13:23;;;;;;;42.47;17.43;;;;;;;7.36;100.00;103787.91;5183302;28;20518;-79
2022/01/18 11:16:03;;;;;;;32.17;17.37;;;;;;;7.53;100.00;103774.00;5196706;28;20071;-78
2022/01/18 11:18:37;;;;;;;39.83;19.03;;;;;;;7.36;100.00;103786.19;5192101;28;20080;-78
2022/01/18 11:21:08;;;;;;;43.73;19.57;;;;;;;7.60;100.00;103791.41;5188853;28;20104;-83
2022/01/18 11:23:40;;;;;;;40.53;17.87;;;;;;;7.67;100.00;103787.03;5178962;28;20038;-79
2022/01/18 11:26:11;;;;;;;34.17;16.53;;;;;;;7.72;100.00;103791.41;5182750;28;20049;-81
2022/01/18 11:28:43;;;;;;;37.73;17.70;;;;;;;7.80;100.00;103783.56;5202606;28;20038;-80
2022/01/18 11:31:14;;;;;;;41.13;18.60;;;;;;;7.81;99.45;103780.09;5190473;28;20554;-77
2022/01/18 11:33:54;;;;;;;39.67;18.10;;;;;;;7.74;99.75;103775.75;5179179;28;20148;-76
2022/01/18 11:36:32;;;;;;;39.63;17.10;;;;;;;7.67;99.73;103787.94;5193050;28;20042;-76
2022/01/18 11:39:06;;;;;;;43.73;18.37;;;;;;;7.63;98.83;103786.19;5186278;28;20034;-73
2022/01/18 11:41:37;;;;;;;30.02;15.30;;;;;;;7.78;98.61;103779.22;5188430;28;20473;-75
2022/01/18 11:44:13;;;;;;;38.07;16.67;;;;;;;7.75;98.57;103780.09;5186469;28;20065;-80
2022/01/18 11:46:50;;;;;;;34.70;15.13;;;;;;;7.81;96.92;103777.50;5184344;28;20042;-77
2022/01/18 11:49:24;;;;;;;34.73;15.50;;;;;;;7.87;98.09;103780.09;5186852;28;20611;-79
2022/01/18 11:52:05;;;;;;;32.35;14.13;;;;;;;7.90;97.24;103758.34;5185934;28;20038;-78
2022/01/18 11:57:22;;;;;;;41.97;14.90;;;;;;;8.06;97.25;103779.19;5189845;28;20047;-83
2022/01/18 11:59:54;;;;;;;38.73;15.50;;;;;;;8.05;95.92;103767.00;5206775;28;20042;-79
2022/01/18 12:02:27;;;;;;;31.67;14.67;;;;;;;8.03;96.16;103768.78;5197679;28;20771;-84
2022/01/18 12:05:06;;;;;;;32.80;15.23;;;;;;;7.89;94.43;103764.41;5195784;28;20042;-81
2022/01/18 12:07:37;;;;;;;30.83;14.20;;;;;;;7.97;95.98;103765.31;5195932;28;20044;-77
2022/01/18 12:10:30;;;;;;;36.43;16.47;;;;;;;7.87;96.12;103763.56;5207825;28;20045;-86
2022/01/18 12:13:05;;;;;;;43.53;15.33;;;;;;;7.87;95.04;103766.19;5191024;28;20473;-78
2022/01/18 12:15:36;;;;;;;36.30;14.83;;;;;;;7.94;95.79;103759.22;5217298;28;20044;-83
2022/01/18 12:18:16;;;;;;;34.73;15.60;;;;;;;8.03;95.55;103753.09;5192701;28;20022;-76
2022/01/18 12:20:49;;;;;;;40.97;17.33;;;;;;;7.86;93.47;103751.38;5188833;28;20057;-84
2022/01/18 12:23:26;;;;;;;35.87;16.23;;;;;;;7.97;94.54;103757.47;5193190;28;20120;-83
2022/01/18 12:27:10;;;;;;;37.80;16.67;;;;;;;7.84;94.88;103740.06;5198207;28;20038;-78
2022/01/18 12:29:23;;;;;;;33.77;16.43;;;;;;;7.90;95.30;103758.34;5189590;28;20053;-79
2022/01/18 12:34:37;;;;;;;33.30;13.80;;;;;;;7.95;94.47;103740.94;5188031;28;20041;-77
2022/01/18 12:37:13;;;;;;;35.50;15.47;;;;;;;8.02;92.88;103746.13;5207129;28;20385;-81
2022/01/18 12:39:54;;;;;;;31.40;13.97;;;;;;;7.91;94.29;103739.19;5194971;28;20814;-88
2022/01/18 12:45:07;;;;;;;38.20;16.00;;;;;;;7.82;92.12;103740.06;5191622;28;20038;-79
2022/01/18 12:47:47;;;;;;;30.67;14.17;;;;;;;7.83;92.18;103735.72;5196539;28;20033;-79